createdAt,value
2017-04-29T00:01:35.823Z,7.23
2017-04-29T00:04:03.259Z,7.05
2017-04-29T00:06:30.703Z,6.22
2017-04-29T00:08:58.159Z,7.88
2017-04-29T00:11:25.615Z,7.75
2017-04-29T00:13:53.063Z,7.75
2017-04-29T00:16:20.507Z,6.60
2017-04-29T00:18:48.663Z,7.37
2017-04-29T00:21:16.819Z,7.62
2017-04-29T00:23:44.265Z,7.00
2017-04-29T00:26:13.052Z,8.27
2017-04-29T00:28:40.479Z,7.70
2017-04-29T00:31:08.691Z,6.82
2017-04-29T00:33:36.104Z,6.58
2017-04-29T00:36:03.535Z,7.67
2017-04-29T00:38:30.980Z,7.37
2017-04-29T00:40:58.425Z,7.62
2017-04-29T00:43:25.878Z,6.70
2017-04-29T00:45:53.287Z,7.57
2017-04-29T00:48:21.459Z,6.65
2017-04-29T00:50:48.915Z,7.20
2017-04-29T00:53:16.355Z,7.65
2017-04-29T00:55:43.814Z,8.37
2017-04-29T00:58:11.863Z,8.55
2017-04-29T01:00:39.279Z,7.77
2017-04-29T01:03:06.708Z,8.18
2017-04-29T01:05:34.155Z,7.72
2017-04-29T01:08:01.631Z,7.90
2017-04-29T01:10:29.067Z,7.37
2017-04-29T01:12:56.536Z,8.02
2017-04-29T01:15:23.975Z,8.13
2017-04-29T01:17:51.400Z,7.85
2017-04-29T01:20:18.885Z,7.78
2017-04-29T01:22:47.048Z,6.43
2017-04-29T01:25:15.211Z,7.47
2017-04-29T01:27:42.768Z,7.12
2017-04-29T01:30:10.202Z,7.67
2017-04-29T01:32:37.623Z,6.83
2017-04-29T01:35:05.080Z,7.05
2017-04-29T01:37:32.491Z,6.28
2017-04-29T01:39:59.936Z,6.82
2017-04-29T01:42:28.108Z,6.20
2017-04-29T01:44:55.547Z,7.30
2017-04-29T01:47:23.723Z,8.38
2017-04-29T01:49:51.180Z,7.85
2017-04-29T01:52:18.603Z,6.60
2017-04-29T01:54:46.079Z,6.78
2017-04-29T01:57:13.575Z,7.30
2017-04-29T01:59:40.996Z,7.13
2017-04-29T02:02:08.915Z,6.92
2017-04-29T02:04:36.370Z,7.47
2017-04-29T02:07:03.786Z,7.15
2017-04-29T02:09:31.246Z,7.25
2017-04-29T02:11:58.696Z,7.33
2017-04-29T02:14:26.148Z,6.98
2017-04-29T02:16:53.575Z,7.38
2017-04-29T02:19:21.026Z,8.07
2017-04-29T02:21:48.439Z,7.03
2017-04-29T02:24:15.875Z,8.72
2017-04-29T02:26:43.347Z,7.85
2017-04-29T02:29:10.767Z,8.03
2017-04-29T02:31:38.187Z,8.08
2017-04-29T02:34:05.647Z,9.03
2017-04-29T02:36:33.087Z,9.40
2017-04-29T02:39:00.499Z,7.53
2017-04-29T02:41:27.951Z,8.60
2017-04-29T02:43:55.371Z,7.70
2017-04-29T02:46:22.792Z,9.15
2017-04-29T02:48:50.255Z,7.88
2017-04-29T02:51:17.667Z,8.80
2017-04-29T02:53:44.351Z,9.03
2017-04-29T02:56:12.322Z,8.40
2017-04-29T02:58:39.755Z,7.72
2017-04-29T03:01:07.179Z,9.70
2017-04-29T03:03:34.628Z,9.03
2017-04-29T03:06:02.051Z,8.43
2017-04-29T03:08:29.491Z,8.58
2017-04-29T03:10:56.971Z,7.32
2017-04-29T03:13:24.424Z,9.40
2017-04-29T03:15:52.583Z,8.65
2017-04-29T03:18:20.771Z,10.00
2017-04-29T03:20:48.199Z,8.90
2017-04-29T03:23:15.620Z,10.45
2017-04-29T03:25:43.819Z,9.28
2017-04-29T03:28:11.991Z,11.03
2017-04-29T03:30:39.407Z,10.23
2017-04-29T03:33:06.845Z,10.65
2017-04-29T03:35:34.284Z,11.18
2017-04-29T03:38:01.695Z,12.00
2017-04-29T03:40:29.126Z,12.93
2017-04-29T03:42:56.546Z,12.22
2017-04-29T03:45:23.987Z,13.02
2017-04-29T03:47:51.416Z,14.13
2017-04-29T03:50:18.835Z,14.70
2017-04-29T03:52:46.268Z,12.97
2017-04-29T03:55:13.738Z,14.95
2017-04-29T03:57:41.663Z,13.22
2017-04-29T04:00:09.112Z,13.13
2017-04-29T04:02:36.562Z,12.50
2017-04-29T04:05:03.995Z,13.63
2017-04-29T04:07:31.446Z,13.55
2017-04-29T04:09:58.916Z,13.63
2017-04-29T04:12:26.356Z,14.12
2017-04-29T04:14:53.796Z,13.85
2017-04-29T04:17:21.245Z,13.85
2017-04-29T04:19:48.666Z,13.17
2017-04-29T04:22:16.107Z,13.97
2017-04-29T04:24:43.622Z,12.90
2017-04-29T04:27:11.055Z,13.65
2017-04-29T04:29:38.804Z,13.45
2017-04-29T04:32:06.271Z,14.22
2017-04-29T04:34:33.703Z,15.07
2017-04-29T04:37:01.124Z,13.97
2017-04-29T04:39:28.602Z,12.88
2017-04-29T04:41:56.003Z,13.75
2017-04-29T04:44:23.451Z,13.47
2017-04-29T04:46:50.910Z,13.73
2017-04-29T04:49:18.331Z,14.27
2017-04-29T04:51:45.771Z,13.90
2017-04-29T04:54:13.267Z,13.87
2017-04-29T04:56:40.691Z,13.70
2017-04-29T04:59:08.124Z,13.33
2017-04-29T05:01:35.555Z,13.47
2017-04-29T05:04:02.999Z,14.13
2017-04-29T05:06:30.439Z,15.65
2017-04-29T05:08:57.925Z,15.28
2017-04-29T05:11:25.352Z,13.63
2017-04-29T05:13:52.783Z,13.82
2017-04-29T05:16:20.247Z,13.98
2017-04-29T05:18:47.680Z,14.28
2017-04-29T05:21:15.102Z,14.17
2017-04-29T05:23:43.563Z,14.27
2017-04-29T05:26:10.987Z,12.27
2017-04-29T05:28:38.419Z,13.52
2017-04-29T05:31:05.867Z,12.70
2017-04-29T05:33:33.283Z,14.13
2017-04-29T05:36:00.727Z,12.45
2017-04-29T05:38:28.163Z,13.45
2017-04-29T05:40:55.596Z,11.97
2017-04-29T05:43:23.791Z,13.00
2017-04-29T05:45:51.218Z,13.00
2017-04-29T05:48:18.647Z,11.92
2017-04-29T05:50:46.115Z,13.07
2017-04-29T05:53:13.547Z,13.23
2017-04-29T05:55:40.971Z,13.40
2017-04-29T05:58:08.438Z,11.63
2017-04-29T06:00:35.875Z,11.07
2017-04-29T06:03:03.323Z,11.10
2017-04-29T06:05:30.788Z,10.77
2017-04-29T06:07:58.224Z,11.73
2017-04-29T06:10:25.651Z,11.97
2017-04-29T06:12:53.124Z,12.12
2017-04-29T06:15:20.567Z,11.20
2017-04-29T06:17:47.984Z,11.33
2017-04-29T06:20:15.463Z,10.63
2017-04-29T06:22:43.651Z,10.82
2017-04-29T06:25:11.096Z,9.78
2017-04-29T06:27:38.879Z,9.62
2017-04-29T06:30:06.305Z,10.07
2017-04-29T06:32:33.763Z,10.55
2017-04-29T06:35:01.220Z,10.32
2017-04-29T06:37:29.407Z,9.63
2017-04-29T06:39:56.863Z,9.93
2017-04-29T06:42:24.340Z,10.88
2017-04-29T06:44:51.787Z,9.58
2017-04-29T06:47:19.247Z,10.33
2017-04-29T06:49:47.467Z,8.88
2017-04-29T06:52:14.917Z,8.93
2017-04-29T06:54:42.663Z,8.77
2017-04-29T06:57:10.110Z,8.93
2017-04-29T06:59:37.539Z,9.50
2017-04-29T07:02:04.982Z,9.63
2017-04-29T07:04:32.452Z,7.97
2017-04-29T07:06:59.175Z,7.83
2017-04-29T07:09:26.632Z,7.93
2017-04-29T07:11:54.103Z,9.12
2017-04-29T07:14:21.532Z,5.42
2017-04-29T07:16:48.967Z,6.57
2017-04-29T07:19:16.415Z,5.83
2017-04-29T07:21:43.879Z,5.73
2017-04-29T07:24:11.910Z,6.13
2017-04-29T07:26:39.926Z,3.70
2017-04-29T07:29:07.813Z,3.97
2017-04-29T07:31:35.583Z,3.43
2017-04-29T07:34:03.039Z,2.80
2017-04-29T07:36:30.467Z,2.52
2017-04-29T07:38:58.108Z,2.98
2017-04-29T07:41:25.767Z,4.54
2017-04-29T07:43:53.200Z,4.00
2017-04-29T07:46:20.652Z,3.96
2017-04-29T07:48:48.112Z,3.38
2017-04-29T07:51:15.532Z,3.92
2017-04-29T07:53:43.108Z,3.04
2017-04-29T07:56:11.311Z,3.12
2017-04-29T07:58:38.743Z,3.90
2017-04-29T08:01:06.198Z,3.26
2017-04-29T08:03:33.612Z,4.56
2017-04-29T08:06:01.790Z,2.80
2017-04-29T08:08:29.266Z,3.10
2017-04-29T08:10:56.729Z,4.08
2017-04-29T08:13:24.216Z,3.88
2017-04-29T08:15:51.631Z,4.66
2017-04-29T08:18:19.830Z,5.00
2017-04-29T08:20:47.287Z,4.78
2017-04-29T08:23:14.759Z,4.64
2017-04-29T08:25:42.723Z,4.22
2017-04-29T08:28:10.931Z,4.08
2017-04-29T08:30:38.347Z,4.30
2017-04-29T08:33:05.795Z,3.96
2017-04-29T08:35:33.248Z,3.58
2017-04-29T08:38:00.731Z,3.68
2017-04-29T08:40:28.190Z,3.70
2017-04-29T08:42:56.348Z,3.42
2017-04-29T08:45:24.523Z,3.42
2017-04-29T08:47:52.007Z,3.98
2017-04-29T08:50:19.467Z,2.80
2017-04-29T08:52:46.904Z,4.42
2017-04-29T08:55:14.368Z,3.52
2017-04-29T08:57:41.811Z,3.50
2017-04-29T09:00:09.247Z,2.98
2017-04-29T09:02:35.955Z,2.96
2017-04-29T09:05:03.408Z,2.88
2017-04-29T09:07:31.599Z,2.38
2017-04-29T09:09:59.059Z,2.42
2017-04-29T09:12:26.482Z,2.76
2017-04-29T09:14:53.920Z,3.22
2017-04-29T09:17:21.413Z,2.44
2017-04-29T09:19:48.842Z,3.32
2017-04-29T09:22:16.278Z,3.24
2017-04-29T09:24:43.843Z,3.98
2017-04-29T09:27:11.275Z,3.32
2017-04-29T09:29:38.687Z,2.90
2017-04-29T09:32:06.142Z,3.98
2017-04-29T09:34:33.582Z,3.26
2017-04-29T09:37:01.044Z,4.14
2017-04-29T09:39:28.536Z,3.06
2017-04-29T09:41:55.970Z,3.84
2017-04-29T09:44:23.404Z,2.80
2017-04-29T09:46:50.886Z,3.58
2017-04-29T09:49:18.348Z,3.76
2017-04-29T09:51:45.815Z,3.28
2017-04-29T09:54:13.982Z,4.30
2017-04-29T09:56:41.415Z,3.68
2017-04-29T09:59:09.611Z,3.62
2017-04-29T10:01:37.036Z,3.74
2017-04-29T10:04:04.459Z,3.62
2017-04-29T10:06:31.907Z,3.30
2017-04-29T10:08:59.363Z,3.00
2017-04-29T10:11:26.819Z,3.98
2017-04-29T10:13:54.292Z,3.60
2017-04-29T10:16:21.708Z,3.20
2017-04-29T10:18:49.184Z,3.27
2017-04-29T10:21:17.415Z,3.25
2017-04-29T10:23:44.854Z,3.48
2017-04-29T10:26:12.925Z,3.05
2017-04-29T10:28:40.390Z,3.17
2017-04-29T10:31:08.551Z,2.96
2017-04-29T10:33:36.739Z,3.44
2017-04-29T10:36:04.183Z,3.28
2017-04-29T10:38:31.631Z,3.06
2017-04-29T10:40:59.059Z,3.12
2017-04-29T10:43:26.556Z,3.40
2017-04-29T10:45:53.991Z,3.48
2017-04-29T10:48:21.438Z,3.56
2017-04-29T10:50:48.883Z,2.82
2017-04-29T10:53:16.353Z,2.70
2017-04-29T10:55:43.787Z,2.98
2017-04-29T10:58:11.243Z,3.40
2017-04-29T11:00:38.688Z,3.90
2017-04-29T11:03:06.143Z,3.30
2017-04-29T11:05:33.602Z,3.12
2017-04-29T11:08:01.043Z,3.08
2017-04-29T11:10:28.500Z,3.38
2017-04-29T11:12:55.932Z,3.10
2017-04-29T11:15:23.375Z,3.52
2017-04-29T11:17:50.824Z,3.62
2017-04-29T11:20:18.280Z,3.66
2017-04-29T11:22:46.457Z,3.30
2017-04-29T11:25:13.939Z,3.08
2017-04-29T11:27:41.387Z,3.00
2017-04-29T11:30:08.862Z,3.08
2017-04-29T11:32:36.303Z,3.64
2017-04-29T11:35:04.512Z,2.74
2017-04-29T11:37:31.935Z,3.98
2017-04-29T11:39:59.371Z,2.54
2017-04-29T11:42:26.851Z,2.88
2017-04-29T11:44:54.291Z,2.84
2017-04-29T11:47:21.752Z,3.32
2017-04-29T11:49:49.183Z,3.60
2017-04-29T11:52:16.631Z,3.32
2017-04-29T11:54:44.084Z,3.12
2017-04-29T11:57:11.510Z,3.22
2017-04-29T11:59:38.935Z,3.92
2017-04-29T12:02:06.393Z,3.32
2017-04-29T12:04:33.854Z,3.18
2017-04-29T12:07:01.287Z,2.98
2017-04-29T12:09:28.723Z,3.20
2017-04-29T12:11:56.157Z,3.50
2017-04-29T12:14:23.615Z,3.12
2017-04-29T12:16:51.839Z,3.36
2017-04-29T12:19:19.318Z,2.80
2017-04-29T12:21:47.503Z,4.04
2017-04-29T12:24:14.975Z,3.24
2017-04-29T12:26:43.180Z,2.80
2017-04-29T12:29:11.339Z,3.48
2017-04-29T12:31:39.510Z,3.50
2017-04-29T12:34:07.688Z,2.72
2017-04-29T12:36:35.123Z,2.60
2017-04-29T12:39:02.632Z,2.88
2017-04-29T12:41:29.410Z,2.98
2017-04-29T12:43:56.828Z,2.62
2017-04-29T12:46:24.284Z,2.58
2017-04-29T12:48:51.715Z,2.50
2017-04-29T12:51:19.147Z,3.14
2017-04-29T12:53:46.596Z,2.66
2017-04-29T12:56:14.054Z,2.88
2017-04-29T12:58:41.467Z,2.72
2017-04-29T13:01:08.935Z,3.28
2017-04-29T13:03:36.352Z,2.82
2017-04-29T13:06:03.791Z,2.70
2017-04-29T13:08:31.260Z,2.56
2017-04-29T13:10:58.696Z,6.64
2017-04-29T13:13:26.152Z,3.34
2017-04-29T13:15:53.610Z,3.90
2017-04-29T13:18:21.023Z,5.42
2017-04-29T13:20:48.508Z,5.72
2017-04-29T13:23:15.218Z,3.50
2017-04-29T13:25:42.899Z,3.26
2017-04-29T13:28:10.348Z,3.30
2017-04-29T13:30:37.791Z,3.28
2017-04-29T13:33:05.247Z,1.98
2017-04-29T13:35:32.671Z,2.90
2017-04-29T13:38:00.107Z,4.04
2017-04-29T13:40:27.539Z,3.40
2017-04-29T13:42:54.967Z,5.00
2017-04-29T13:45:22.436Z,5.28
2017-04-29T13:47:49.887Z,3.26
2017-04-29T13:50:17.356Z,4.02
2017-04-29T13:52:44.807Z,2.98
2017-04-29T13:55:12.867Z,2.80
2017-04-29T13:57:40.323Z,3.26
2017-04-29T14:00:07.763Z,2.54
2017-04-29T14:02:35.187Z,2.98
2017-04-29T14:05:02.659Z,6.40
2017-04-29T14:07:30.100Z,2.94
2017-04-29T14:09:58.295Z,4.86
2017-04-29T14:12:25.762Z,2.44
2017-04-29T14:14:53.216Z,2.88
2017-04-29T14:17:20.650Z,2.48
2017-04-29T14:19:48.112Z,2.36
2017-04-29T14:22:15.575Z,2.54
2017-04-29T14:24:43.751Z,2.74
2017-04-29T14:27:11.246Z,2.58
2017-04-29T14:29:38.695Z,2.72
2017-04-29T14:32:06.120Z,2.54
2017-04-29T14:34:33.555Z,3.34
2017-04-29T14:37:00.978Z,2.90
2017-04-29T14:39:28.398Z,2.20
2017-04-29T14:41:55.855Z,2.58
2017-04-29T14:44:23.296Z,2.48
2017-04-29T14:46:50.738Z,2.24
2017-04-29T14:49:18.195Z,2.32
2017-04-29T14:51:45.651Z,2.22
2017-04-29T14:54:13.346Z,3.36
2017-04-29T14:56:40.814Z,3.68
2017-04-29T14:59:08.248Z,2.06
2017-04-29T15:01:35.711Z,2.12
2017-04-29T15:04:03.250Z,2.62
2017-04-29T15:06:30.714Z,2.00
2017-04-29T15:08:58.167Z,2.20
2017-04-29T15:11:27.451Z,2.82
2017-04-29T15:13:55.603Z,3.28
2017-04-29T15:16:23.068Z,2.84
2017-04-29T15:18:50.528Z,2.50
2017-04-29T15:21:17.983Z,2.00
2017-04-29T15:23:45.452Z,2.68
2017-04-29T15:26:13.509Z,2.40
2017-04-29T15:28:40.915Z,3.20
2017-04-29T15:31:08.374Z,2.10
2017-04-29T15:33:35.831Z,2.48
2017-04-29T15:36:03.446Z,2.54
2017-04-29T15:38:30.935Z,2.94
2017-04-29T15:40:59.112Z,2.66
2017-04-29T15:43:27.265Z,2.32
2017-04-29T15:45:54.728Z,2.24
2017-04-29T15:48:22.159Z,2.10
2017-04-29T15:50:49.607Z,3.16
2017-04-29T15:53:17.060Z,4.40
2017-04-29T15:55:44.526Z,2.30
2017-04-29T15:58:11.952Z,2.68
2017-04-29T16:00:39.423Z,2.88
2017-04-29T16:03:06.875Z,2.10
2017-04-29T16:05:35.058Z,2.20
2017-04-29T16:08:02.511Z,2.12
2017-04-29T16:10:29.983Z,2.72
2017-04-29T16:12:57.473Z,2.52
2017-04-29T16:15:25.654Z,2.10
2017-04-29T16:17:53.092Z,2.40
2017-04-29T16:20:20.531Z,2.82
2017-04-29T16:22:47.997Z,2.00
2017-04-29T16:25:15.462Z,2.20
2017-04-29T16:27:43.612Z,2.34
2017-04-29T16:30:11.082Z,1.94
2017-04-29T16:32:39.271Z,2.42
2017-04-29T16:35:06.708Z,3.16
2017-04-29T16:37:34.151Z,1.94
2017-04-29T16:40:01.616Z,6.84
2017-04-29T16:42:29.036Z,2.74
2017-04-29T16:44:56.507Z,2.94
2017-04-29T16:47:23.974Z,10.04
2017-04-29T16:49:51.391Z,4.60
2017-04-29T16:52:18.849Z,4.74
2017-04-29T16:54:46.290Z,4.60
2017-04-29T16:57:13.731Z,2.00
2017-04-29T16:59:41.191Z,2.50
2017-04-29T17:02:09.399Z,1.92
2017-04-29T17:04:36.860Z,1.58
2017-04-29T17:07:04.387Z,1.52
2017-04-29T17:09:31.853Z,1.58
2017-04-29T17:12:00.706Z,1.40
2017-04-29T17:14:28.246Z,1.60
2017-04-29T17:16:55.725Z,1.28
2017-04-29T17:19:23.179Z,1.70
2017-04-29T17:21:51.363Z,1.52
2017-04-29T17:24:18.807Z,1.54
2017-04-29T17:26:46.280Z,1.56
2017-04-29T17:29:13.760Z,1.42
2017-04-29T17:31:41.188Z,1.34
2017-04-29T17:34:08.659Z,1.36
2017-04-29T17:36:36.114Z,1.60
2017-04-29T17:39:03.613Z,1.94
2017-04-29T17:41:31.046Z,1.20
2017-04-29T17:43:58.475Z,1.47
2017-04-29T17:46:25.927Z,1.32
2017-04-29T17:48:53.369Z,1.30
2017-04-29T17:51:20.819Z,1.57
2017-04-29T17:53:49.008Z,1.53
2017-04-29T17:56:16.489Z,1.67
2017-04-29T17:58:43.944Z,1.05
2017-04-29T18:01:11.403Z,1.77
2017-04-29T18:03:39.611Z,1.35
2017-04-29T18:06:07.043Z,1.63
2017-04-29T18:08:34.479Z,1.65
2017-04-29T18:11:01.919Z,1.62
2017-04-29T18:13:29.366Z,1.93
2017-04-29T18:15:56.799Z,1.65
2017-04-29T18:18:24.263Z,1.75
2017-04-29T18:20:51.729Z,1.38
2017-04-29T18:23:19.164Z,1.63
2017-04-29T18:25:46.616Z,1.55
2017-04-29T18:28:14.055Z,1.57
2017-04-29T18:30:41.482Z,1.87
2017-04-29T18:33:08.937Z,1.98
2017-04-29T18:35:36.423Z,1.90
2017-04-29T18:38:03.920Z,1.50
2017-04-29T18:40:31.365Z,1.60
2017-04-29T18:42:58.803Z,1.48
2017-04-29T18:45:26.275Z,1.43
2017-04-29T18:47:53.733Z,1.65
2017-04-29T18:50:21.175Z,1.27
2017-04-29T18:52:48.616Z,1.40
2017-04-29T18:55:16.095Z,1.47
2017-04-29T18:57:43.786Z,1.72
2017-04-29T19:00:12.000Z,1.70
2017-04-29T19:02:39.453Z,1.88
2017-04-29T19:05:06.896Z,1.48
2017-04-29T19:07:34.335Z,1.60
2017-04-29T19:10:01.787Z,1.78
2017-04-29T19:12:29.247Z,1.87
2017-04-29T19:14:57.423Z,2.20
2017-04-29T19:17:24.891Z,2.25
2017-04-29T19:19:52.319Z,2.33
2017-04-29T19:22:19.776Z,1.80
2017-04-29T19:24:47.220Z,2.03
2017-04-29T19:27:14.678Z,2.05
2017-04-29T19:29:42.171Z,2.05
2017-04-29T19:32:09.963Z,2.02
2017-04-29T19:34:37.399Z,2.28
2017-04-29T19:37:04.807Z,1.88
2017-04-29T19:39:32.271Z,1.85
2017-04-29T19:41:59.767Z,1.90
2017-04-29T19:44:27.941Z,2.43
2017-04-29T19:46:55.403Z,1.60
2017-04-29T19:49:22.871Z,2.23
2017-04-29T19:51:50.327Z,2.17
2017-04-29T19:54:18.176Z,2.80
2017-04-29T19:56:45.652Z,2.00
2017-04-29T19:59:13.491Z,2.13
2017-04-29T20:01:41.002Z,2.52
2017-04-29T20:04:08.499Z,2.83
2017-04-29T20:06:36.064Z,2.83
2017-04-29T20:09:03.633Z,2.85
2017-04-29T20:11:31.416Z,2.72
2017-04-29T20:13:59.132Z,2.25
2017-04-29T20:16:27.005Z,2.45
2017-04-29T20:18:54.530Z,2.73
2017-04-29T20:21:22.004Z,3.25
2017-04-29T20:23:49.471Z,2.57
2017-04-29T20:26:16.921Z,2.45
2017-04-29T20:28:44.392Z,2.90
2017-04-29T20:31:11.922Z,2.95
2017-04-29T20:33:39.398Z,2.53
2017-04-29T20:36:07.576Z,2.73
2017-04-29T20:38:35.080Z,3.47
2017-04-29T20:41:02.551Z,3.10
2017-04-29T20:43:29.984Z,2.52
2017-04-29T20:45:58.203Z,2.82
2017-04-29T20:48:25.737Z,3.10
2017-04-29T20:50:53.183Z,3.20
2017-04-29T20:53:20.638Z,2.50
2017-04-29T20:55:48.079Z,2.73
2017-04-29T20:58:14.779Z,2.40
2017-04-29T21:00:42.510Z,2.62
2017-04-29T21:03:09.987Z,2.67
2017-04-29T21:05:37.426Z,3.10
2017-04-29T21:08:04.904Z,3.20
2017-04-29T21:10:32.348Z,3.92
2017-04-29T21:12:59.796Z,3.35
2017-04-29T21:15:27.275Z,3.52
2017-04-29T21:17:54.723Z,3.78
2017-04-29T21:20:22.186Z,3.87
2017-04-29T21:22:50.755Z,3.57
2017-04-29T21:25:20.072Z,3.05
2017-04-29T21:27:47.567Z,3.00
2017-04-29T21:30:15.106Z,3.20
2017-04-29T21:32:44.019Z,4.00
2017-04-29T21:35:12.844Z,3.37
2017-04-29T21:37:40.323Z,4.03
2017-04-29T21:40:08.530Z,3.67
2017-04-29T21:42:36.020Z,4.33
2017-04-29T21:45:04.238Z,4.12
2017-04-29T21:47:31.684Z,3.50
2017-04-29T21:49:59.131Z,3.82
2017-04-29T21:52:26.615Z,2.78
2017-04-29T21:54:54.803Z,4.02
2017-04-29T21:57:22.232Z,3.02
2017-04-29T21:59:49.714Z,3.20
2017-04-29T22:02:17.139Z,3.35
2017-04-29T22:04:44.574Z,3.50
2017-04-29T22:07:12.036Z,3.77
2017-04-29T22:09:39.484Z,3.55
2017-04-29T22:12:06.902Z,3.57
2017-04-29T22:14:34.383Z,3.83
2017-04-29T22:17:01.832Z,2.97
2017-04-29T22:19:30.051Z,3.67
2017-04-29T22:21:57.495Z,3.48
2017-04-29T22:24:24.931Z,3.23
2017-04-29T22:26:52.374Z,3.25
2017-04-29T22:29:19.831Z,3.25
2017-04-29T22:31:47.263Z,3.72
2017-04-29T22:34:14.758Z,3.70
2017-04-29T22:36:42.878Z,2.80
2017-04-29T22:39:10.352Z,3.33
2017-04-29T22:41:37.843Z,2.80
2017-04-29T22:44:05.287Z,3.13
2017-04-29T22:46:32.714Z,2.77
2017-04-29T22:49:00.307Z,3.82
2017-04-29T22:51:28.491Z,3.25
2017-04-29T22:53:56.415Z,3.25
2017-04-29T22:56:24.039Z,2.97
2017-04-29T22:58:51.730Z,2.90
2017-04-29T23:01:19.195Z,3.75
2017-04-29T23:03:46.631Z,3.63
2017-04-29T23:06:14.082Z,3.48
2017-04-29T23:08:45.587Z,3.10
2017-04-29T23:11:13.063Z,3.23
2017-04-29T23:13:40.543Z,2.92
2017-04-29T23:16:07.995Z,3.67
2017-04-29T23:18:35.512Z,3.13
2017-04-29T23:21:02.944Z,4.38
2017-04-29T23:23:30.536Z,2.98
2017-04-29T23:25:57.966Z,4.33
2017-04-29T23:28:25.427Z,3.12
2017-04-29T23:30:52.911Z,3.72
2017-04-29T23:33:20.347Z,4.02
2017-04-29T23:35:47.974Z,3.63
2017-04-29T23:38:15.427Z,3.22
2017-04-29T23:40:43.468Z,3.88
2017-04-29T23:43:10.927Z,3.08
2017-04-29T23:45:38.394Z,4.17
2017-04-29T23:48:09.071Z,3.57
2017-04-29T23:50:36.523Z,3.42
2017-04-29T23:53:03.991Z,5.03
2017-04-29T23:55:31.477Z,2.57
2017-04-29T23:57:58.890Z,3.18
